Da Xian, China
Current Conditions -  °F | °C
As of 12:00 AM on Tuesday 27 Jan 2015 (Local Time) from ZUCK Reporting Station
Haze Haze  
Wind Chill: 54°   Ceiling: 5000
Heat Index: 54°   Visibility: 0.87mi
Dew Point: 48°   Wind: 4mph
Humidity: 82%   Direction: 40°NE
Pressure: 30.06"   Gusts: NA
Location:  31.2°N, 107.5°E
Report Text: ZUCK 261600Z 04002MPS 1400 R02L/P2000N R02R/P2000N BRSCT012SCT020OVC050 12/09 Q1018 NOSIG
Loading
Personal Weather Stations






























Interactive Weather Map New forecast layout! Learn more

10-Day Weather Forecast

Advertisements
Track Severe Weather on mobile